createdAt,value
2023-02-11T00:00:52.614Z,-1.1
2023-02-11T00:03:22.528Z,-1.2
2023-02-11T00:05:52.626Z,-1.3
2023-02-11T00:08:22.458Z,-1.3
2023-02-11T00:10:52.427Z,-1.3
2023-02-11T00:13:22.407Z,-1.3
2023-02-11T00:15:52.400Z,-1.2
2023-02-11T00:18:22.107Z,-1.3
2023-02-11T00:20:52.191Z,-1.3
2023-02-11T00:23:22.264Z,-1.2
2023-02-11T00:25:52.618Z,-1.3
2023-02-11T00:28:22.385Z,-1.3
2023-02-11T00:30:52.506Z,-1.4
2023-02-11T00:33:22.311Z,-1.4
2023-02-11T00:35:52.543Z,-1.4
2023-02-11T00:38:22.375Z,-1.4
2023-02-11T00:40:52.478Z,-1.4
2023-02-11T00:43:25.186Z,-1.4
2023-02-11T00:45:58.252Z,-1.5
2023-02-11T00:48:27.418Z,-1.5
2023-02-11T00:50:56.996Z,-1.5
2023-02-11T00:53:27.029Z,-1.6
2023-02-11T00:56:04.681Z,-1.6
2023-02-11T01:01:10.390Z,-1.6
2023-02-11T01:03:39.892Z,-1.6
2023-02-11T01:06:12.731Z,-1.6
2023-02-11T01:08:43.242Z,-1.6
2023-02-11T01:11:15.181Z,-1.6
2023-02-11T01:16:21.508Z,-1.5
2023-02-11T01:18:59.031Z,-1.5
2023-02-11T01:21:28.810Z,-1.5
2023-02-11T01:24:05.085Z,-1.5
2023-02-11T01:26:34.732Z,-1.5
2023-02-11T01:29:04.558Z,-1.5
2023-02-11T01:31:34.642Z,-1.6
2023-02-11T01:34:04.673Z,-1.5
2023-02-11T01:36:41.514Z,-1.6
2023-02-11T01:39:11.406Z,-1.7
2023-02-11T01:44:20.938Z,-1.7
2023-02-11T01:46:51.187Z,-1.6
2023-02-11T01:49:21.100Z,-1.7
2023-02-11T01:51:51.229Z,-1.7
2023-02-11T01:54:21.147Z,-1.7
2023-02-11T01:56:51.207Z,-1.6
2023-02-11T01:59:21.179Z,-1.6
2023-02-11T02:01:51.095Z,-1.6
2023-02-11T02:04:21.085Z,-1.8
2023-02-11T02:06:51.228Z,-1.7
2023-02-11T02:09:26.205Z,-1.8
2023-02-11T02:11:56.689Z,-1.9
2023-02-11T02:14:26.583Z,-1.9
2023-02-11T02:16:56.871Z,-1.9
2023-02-11T02:19:26.822Z,-1.9
2023-02-11T02:21:56.795Z,-1.9
2023-02-11T02:24:26.829Z,-1.9
2023-02-11T02:26:56.526Z,-1.9
2023-02-11T02:29:26.661Z,-1.9
2023-02-11T02:31:56.793Z,-1.9
2023-02-11T02:34:26.578Z,-2
2023-02-11T02:36:56.616Z,-1.9
2023-02-11T02:39:26.759Z,-2
2023-02-11T02:41:56.744Z,-2
2023-02-11T02:44:26.629Z,-2
2023-02-11T02:46:56.783Z,-1.9
2023-02-11T02:49:26.660Z,-2
2023-02-11T02:51:56.780Z,-1.9
2023-02-11T02:54:26.898Z,-1.9
2023-02-11T02:56:56.698Z,-1.9
2023-02-11T02:59:26.824Z,-2
2023-02-11T03:01:57.030Z,-1.9
2023-02-11T03:04:27.053Z,-1.9
2023-02-11T03:06:56.896Z,-1.9
2023-02-11T03:09:26.716Z,-2
2023-02-11T03:11:56.752Z,-2
2023-02-11T03:14:26.552Z,-2
2023-02-11T03:16:56.563Z,-2
2023-02-11T03:19:26.403Z,-2
2023-02-11T03:21:56.311Z,-2
2023-02-11T03:24:26.364Z,-2
2023-02-11T03:29:30.563Z,-2.1
2023-02-11T03:32:00.927Z,-2.1
2023-02-11T03:34:30.337Z,-2.1
2023-02-11T03:37:00.372Z,-2
2023-02-11T03:39:30.286Z,-2.1
2023-02-11T03:42:00.245Z,-2.1
2023-02-11T03:44:30.240Z,-2
2023-02-11T03:46:59.958Z,-2.1
2023-02-11T03:49:30.076Z,-2
2023-02-11T03:52:00.015Z,-2
2023-02-11T03:54:29.817Z,-2.1
2023-02-11T03:56:59.905Z,-2.1
2023-02-11T03:59:29.716Z,-2.1
2023-02-11T04:01:59.483Z,-2.2
2023-02-11T04:04:29.411Z,-2.2
2023-02-11T04:06:59.351Z,-2.3
2023-02-11T04:09:29.400Z,-2.3
2023-02-11T04:11:59.878Z,-2.2
2023-02-11T04:14:29.892Z,-2.4
2023-02-11T04:16:59.769Z,-2.3
2023-02-11T04:19:29.550Z,-2.3
2023-02-11T04:21:59.507Z,-2.2
2023-02-11T04:24:29.473Z,-2.3
2023-02-11T04:26:59.540Z,-2.2
2023-02-11T04:29:29.510Z,-2.3
2023-02-11T04:31:59.931Z,-2.3
2023-02-11T04:34:29.783Z,-2.2
2023-02-11T04:36:59.924Z,-2.3
2023-02-11T04:39:29.796Z,-2.3
2023-02-11T04:41:59.736Z,-2.3
2023-02-11T04:44:29.743Z,-2.3
2023-02-11T04:46:59.858Z,-2.2
2023-02-11T04:49:29.478Z,-2.3
2023-02-11T04:51:59.531Z,-2.3
2023-02-11T04:54:29.372Z,-2.3
2023-02-11T04:56:59.466Z,-2.2
2023-02-11T04:59:29.112Z,-2.3
2023-02-11T05:01:59.154Z,-2.3
2023-02-11T05:04:29.407Z,-2.3
2023-02-11T05:06:59.797Z,-2.3
2023-02-11T05:09:29.588Z,-2.4
2023-02-11T05:11:59.554Z,-2.3
2023-02-11T05:14:29.607Z,-2.4
2023-02-11T05:16:59.864Z,-2.4
2023-02-11T05:19:29.640Z,-2.5
2023-02-11T05:22:02.837Z,-2.4
2023-02-11T05:24:29.644Z,-2.5
2023-02-11T05:26:59.759Z,-2.5
2023-02-11T05:29:29.911Z,-2.6
2023-02-11T05:32:00.011Z,-2.6
2023-02-11T05:34:30.157Z,-2.6
2023-02-11T05:37:00.203Z,-2.6
2023-02-11T05:39:30.183Z,-2.6
2023-02-11T05:42:00.113Z,-2.7
2023-02-11T05:44:30.186Z,-2.7
2023-02-11T05:47:00.143Z,-2.6
2023-02-11T05:49:30.261Z,-2.7
2023-02-11T05:52:00.428Z,-2.7
2023-02-11T05:54:30.346Z,-2.6
2023-02-11T05:57:00.564Z,-2.5
2023-02-11T05:59:30.587Z,-2.5
2023-02-11T06:02:00.483Z,-2.5
2023-02-11T06:04:30.640Z,-2.4
2023-02-11T06:07:00.412Z,-2.4
2023-02-11T06:09:30.536Z,-2.4
2023-02-11T06:12:00.608Z,-2.3
2023-02-11T06:14:30.718Z,-2.3
2023-02-11T06:17:00.778Z,-2.3
2023-02-11T06:19:30.946Z,-2.3
2023-02-11T06:22:00.945Z,-2.2
2023-02-11T06:24:51.266Z,-2.2
2023-02-11T06:27:01.129Z,-2.1
2023-02-11T06:29:31.005Z,-2.1
2023-02-11T06:32:01.155Z,-2
2023-02-11T06:34:30.955Z,-2
2023-02-11T06:37:01.060Z,-1.9
2023-02-11T06:39:31.058Z,-1.9
2023-02-11T06:42:00.974Z,-1.8
2023-02-11T06:44:30.844Z,-1.9
2023-02-11T06:47:00.618Z,-1.8
2023-02-11T06:49:30.197Z,-1.7
2023-02-11T06:52:00.224Z,-1.6
2023-02-11T06:54:32.941Z,-1.6
2023-02-11T06:57:00.800Z,-1.5
2023-02-11T06:59:30.617Z,-1.4
2023-02-11T07:02:00.711Z,-1.4
2023-02-11T07:04:30.842Z,-1.4
2023-02-11T07:07:07.023Z,-1.3
2023-02-11T07:09:36.758Z,-1.3
2023-02-11T07:12:06.813Z,-1.3
2023-02-11T07:14:36.206Z,-1.1
2023-02-11T07:17:06.202Z,-1
2023-02-11T07:19:36.140Z,-0.9
2023-02-11T07:22:11.982Z,-0.8
2023-02-11T07:24:41.975Z,-0.7
2023-02-11T07:27:11.930Z,-0.6
2023-02-11T07:29:41.556Z,-0.6
2023-02-11T07:32:12.844Z,-0.4
2023-02-11T07:34:42.597Z,-0.4
2023-02-11T07:37:12.545Z,-0.3
2023-02-11T07:39:42.799Z,-0.3
2023-02-11T07:42:12.793Z,-0.2
2023-02-11T07:44:42.902Z,-0.1
2023-02-11T07:47:14.859Z,0
2023-02-11T07:49:44.254Z,0.1
2023-02-11T07:52:14.096Z,0.2
2023-02-11T07:54:44.208Z,0.3
2023-02-11T07:57:14.700Z,0.4
2023-02-11T07:59:44.548Z,0.5
2023-02-11T08:02:15.157Z,0.6
2023-02-11T08:04:46.170Z,0.7
2023-02-11T08:07:15.880Z,0.8
2023-02-11T08:09:45.836Z,1
2023-02-11T08:12:15.708Z,1.1
2023-02-11T08:14:45.796Z,1.2
2023-02-11T08:17:16.623Z,1.3
2023-02-11T08:19:46.354Z,1.4
2023-02-11T08:22:16.431Z,1.4
2023-02-11T08:24:46.409Z,1.6
2023-02-11T08:27:16.372Z,1.7
2023-02-11T08:29:46.397Z,1.8
2023-02-11T08:32:17.080Z,2
2023-02-11T08:34:46.958Z,2.1
2023-02-11T08:37:22.867Z,2.3
2023-02-11T08:39:53.071Z,2.5
2023-02-11T08:42:23.245Z,2.6
2023-02-11T08:44:53.297Z,2.7
2023-02-11T08:47:24.055Z,2.8
2023-02-11T08:49:54.864Z,3
2023-02-11T08:52:24.169Z,3.1
2023-02-11T08:54:54.188Z,3.2
2023-02-11T08:57:24.803Z,3.3
2023-02-11T08:59:54.743Z,3.4
2023-02-11T09:02:25.666Z,3.5
2023-02-11T09:04:55.487Z,3.6
2023-02-11T09:07:25.596Z,3.7
2023-02-11T09:09:55.409Z,3.9
2023-02-11T09:12:25.258Z,3.9
2023-02-11T09:14:54.823Z,3.9
2023-02-11T09:17:24.904Z,4
2023-02-11T09:19:54.619Z,4.2
2023-02-11T09:22:24.802Z,4.2
2023-02-11T09:24:54.767Z,4.2
2023-02-11T09:27:24.972Z,4.3
2023-02-11T09:29:54.647Z,4.4
2023-02-11T09:32:25.165Z,4.5
2023-02-11T09:34:55.294Z,4.6
2023-02-11T09:37:26.123Z,4.5
2023-02-11T09:39:56.243Z,4.7
2023-02-11T09:42:26.952Z,4.6
2023-02-11T09:44:56.636Z,4.7
2023-02-11T09:47:26.892Z,4.9
2023-02-11T09:49:56.953Z,5
2023-02-11T09:52:26.292Z,5
2023-02-11T09:54:56.342Z,5.1
2023-02-11T09:57:28.754Z,5.2
2023-02-11T09:59:56.298Z,5.3
2023-02-11T10:02:26.386Z,5.3
2023-02-11T10:04:56.248Z,5.4
2023-02-11T10:07:26.065Z,5.4
2023-02-11T10:10:00.033Z,5.5
2023-02-11T10:12:29.621Z,5.6
2023-02-11T10:14:59.704Z,5.6
2023-02-11T10:17:29.876Z,5.6
2023-02-11T10:20:00.723Z,5.8
2023-02-11T10:22:30.471Z,5.8
2023-02-11T10:25:01.529Z,5.9
2023-02-11T10:27:31.076Z,5.9
2023-02-11T10:30:02.129Z,5.9
2023-02-11T10:32:33.828Z,6.1
2023-02-11T10:35:04.452Z,6.1
2023-02-11T10:37:33.978Z,6.2
2023-02-11T10:40:04.867Z,6.3
2023-02-11T10:42:34.605Z,6.3
2023-02-11T10:45:04.340Z,6.3
2023-02-11T10:47:36.938Z,6.2
2023-02-11T10:50:06.953Z,6.4
2023-02-11T10:52:37.320Z,6.4
2023-02-11T10:55:07.438Z,6.4
2023-02-11T10:57:37.690Z,6.5
2023-02-11T11:00:07.499Z,6.6
2023-02-11T11:02:37.345Z,6.5
2023-02-11T11:05:07.618Z,6.5
2023-02-11T11:07:37.829Z,6.5
2023-02-11T11:10:07.142Z,6.7
2023-02-11T11:12:38.245Z,6.6
2023-02-11T11:15:07.125Z,6.7
2023-02-11T11:17:37.290Z,6.6
2023-02-11T11:20:10.944Z,6.7
2023-02-11T11:22:44.728Z,6.8
2023-02-11T11:25:13.597Z,6.8
2023-02-11T11:27:43.533Z,6.7
2023-02-11T11:30:13.394Z,6.8
2023-02-11T11:32:42.933Z,6.8
2023-02-11T11:35:13.749Z,6.9
2023-02-11T11:37:44.860Z,6.9
2023-02-11T11:40:14.661Z,6.9
2023-02-11T11:42:44.532Z,6.9
2023-02-11T11:45:14.410Z,6.9
2023-02-11T11:47:44.954Z,6.9
2023-02-11T11:50:15.165Z,6.9
2023-02-11T11:52:45.012Z,7
2023-02-11T11:55:15.045Z,7
2023-02-11T11:57:45.171Z,7
2023-02-11T12:00:15.326Z,7
2023-02-11T12:02:45.424Z,7.1
2023-02-11T12:05:15.131Z,7
2023-02-11T12:07:45.114Z,7.1
2023-02-11T12:10:17.377Z,7.1
2023-02-11T12:12:47.363Z,7.2
2023-02-11T12:15:17.234Z,7.1
2023-02-11T12:17:48.746Z,7.1
2023-02-11T12:20:19.448Z,7.1
2023-02-11T12:22:57.166Z,7.1
2023-02-11T12:25:29.379Z,7.2
2023-02-11T12:27:59.389Z,7.2
2023-02-11T12:30:30.108Z,7.3
2023-02-11T12:33:00.337Z,7.3
2023-02-11T12:35:30.713Z,7.3
2023-02-11T12:38:04.015Z,7.3
2023-02-11T12:40:34.678Z,7.3
2023-02-11T12:43:04.572Z,7.4
2023-02-11T12:45:35.146Z,7.4
2023-02-11T12:48:05.061Z,7.5
2023-02-11T12:50:35.799Z,7.5
2023-02-11T12:53:05.831Z,7.4
2023-02-11T12:55:36.034Z,7.5
2023-02-11T12:58:06.114Z,7.6
2023-02-11T13:00:36.302Z,7.5
2023-02-11T13:03:06.271Z,7.6
2023-02-11T13:05:35.984Z,7.8
2023-02-11T13:08:06.616Z,7.8
2023-02-11T13:10:36.966Z,7.9
2023-02-11T13:13:06.124Z,8
2023-02-11T13:15:36.070Z,8
2023-02-11T13:18:06.516Z,8
2023-02-11T13:20:39.304Z,8.1
2023-02-11T13:23:25.835Z,8
2023-02-11T13:25:55.718Z,8.1
2023-02-11T13:28:26.452Z,8.1
2023-02-11T13:30:57.425Z,8.1
2023-02-11T13:33:26.959Z,8.1
2023-02-11T13:35:57.104Z,8.1
2023-02-11T13:38:27.241Z,8.1
2023-02-11T13:40:57.383Z,8
2023-02-11T13:43:28.303Z,7.9
2023-02-11T13:45:58.554Z,7.7
2023-02-11T13:48:27.749Z,7.7
2023-02-11T13:53:29.599Z,7.5
2023-02-11T13:55:59.577Z,7.4
2023-02-11T13:58:30.296Z,7.4
2023-02-11T14:01:00.219Z,7.4
2023-02-11T14:03:30.783Z,7.3
2023-02-11T14:06:00.111Z,7.3
2023-02-11T14:08:30.759Z,7.3
2023-02-11T14:11:01.283Z,7.2
2023-02-11T14:13:30.949Z,7.3
2023-02-11T14:16:05.592Z,7.2
2023-02-11T14:18:36.253Z,7.3
2023-02-11T14:21:06.171Z,7.2
2023-02-11T14:23:47.951Z,7.2
2023-02-11T14:26:23.527Z,7.2
2023-02-11T14:28:53.559Z,7.2
2023-02-11T14:34:23.157Z,7.3
2023-02-11T14:39:40.000Z,7.3
2023-02-11T14:42:09.812Z,7.3
2023-02-11T14:44:39.844Z,7.1
2023-02-11T14:47:10.524Z,7.1
2023-02-11T14:49:44.850Z,7.1
2023-02-11T14:52:15.096Z,7.1
2023-02-11T14:54:46.566Z,7.1
2023-02-11T14:57:16.245Z,7.1
2023-02-11T14:59:46.344Z,7
2023-02-11T15:02:22.431Z,7
2023-02-11T15:04:55.087Z,7
2023-02-11T15:07:24.749Z,6.9
2023-02-11T15:09:54.565Z,6.9
2023-02-11T15:12:25.417Z,6.8
2023-02-11T15:17:44.903Z,6.9
2023-02-11T15:20:31.810Z,7
2023-02-11T15:23:13.596Z,7
2023-02-11T15:25:45.966Z,7
2023-02-11T15:28:15.384Z,6.9
2023-02-11T15:30:45.298Z,6.7
2023-02-11T15:33:17.717Z,6.6
2023-02-11T15:35:53.095Z,6.6
2023-02-11T15:38:27.327Z,6.6
2023-02-11T15:40:57.159Z,6.5
2023-02-11T15:43:26.052Z,6.5
2023-02-11T15:45:55.676Z,6.4
2023-02-11T15:48:26.523Z,6.5
2023-02-11T15:51:01.917Z,6.4
2023-02-11T15:53:32.324Z,6.4
2023-02-11T15:56:01.630Z,6.2
2023-02-11T15:58:39.116Z,6.2
2023-02-11T16:01:08.439Z,6.1
2023-02-11T16:03:44.276Z,6
2023-02-11T16:06:15.074Z,6.1
2023-02-11T16:08:45.403Z,6.1
2023-02-11T16:11:15.020Z,6.1
2023-02-11T16:13:44.902Z,6.1
2023-02-11T16:16:14.532Z,6
2023-02-11T16:19:04.107Z,6
2023-02-11T16:21:22.756Z,5.9
2023-02-11T16:23:52.481Z,5.8
2023-02-11T16:26:22.067Z,5.8
2023-02-11T16:28:52.143Z,5.7
2023-02-11T16:31:23.592Z,5.8
2023-02-11T16:33:54.054Z,5.8
2023-02-11T16:36:25.433Z,5.7
2023-02-11T16:38:55.607Z,5.6
2023-02-11T16:41:29.669Z,5.7
2023-02-11T16:43:59.990Z,5.7
2023-02-11T16:46:29.856Z,5.6
2023-02-11T16:49:00.511Z,5.6
2023-02-11T16:51:30.723Z,5.5
2023-02-11T16:54:00.524Z,5.4
2023-02-11T16:56:41.908Z,5.4
2023-02-11T17:01:57.052Z,5.6
2023-02-11T17:04:26.955Z,5.5
2023-02-11T17:06:58.446Z,5.5
2023-02-11T17:09:30.226Z,5.5
2023-02-11T17:11:56.781Z,5.4
2023-02-11T17:14:26.500Z,5.3
2023-02-11T17:17:04.437Z,5.3
2023-02-11T17:19:40.157Z,5.3
2023-02-11T17:22:09.461Z,5.4
2023-02-11T17:24:39.904Z,5.3
2023-02-11T17:27:09.971Z,5.2
2023-02-11T17:29:42.022Z,5.2
2023-02-11T17:32:11.122Z,5.2
2023-02-11T17:34:44.291Z,5.1
2023-02-11T17:37:14.630Z,5.1
2023-02-11T17:39:45.537Z,5.1
2023-02-11T17:42:16.169Z,5.1
2023-02-11T17:44:46.136Z,5
2023-02-11T17:47:16.981Z,4.9
2023-02-11T17:49:53.544Z,4.9
2023-02-11T17:52:23.399Z,4.8
2023-02-11T17:54:53.594Z,4.7
2023-02-11T17:57:23.521Z,4.6
2023-02-11T17:59:53.482Z,4.7
2023-02-11T18:02:23.744Z,4.7
2023-02-11T18:04:53.878Z,4.5
2023-02-11T18:07:24.116Z,4.6
2023-02-11T18:09:53.964Z,4.5
2023-02-11T18:12:29.782Z,4.5
2023-02-11T18:15:01.093Z,4.5
2023-02-11T18:17:31.929Z,4.5
2023-02-11T18:20:01.861Z,4.5
2023-02-11T18:22:32.680Z,4.4
2023-02-11T18:25:02.742Z,4.5
2023-02-11T18:27:32.552Z,4.4
2023-02-11T18:30:02.670Z,4.3
2023-02-11T18:32:32.631Z,4.3
2023-02-11T18:35:02.873Z,4.3
2023-02-11T18:37:33.511Z,4.2
2023-02-11T18:40:03.262Z,4.2
2023-02-11T18:42:33.284Z,4.1
2023-02-11T18:45:03.376Z,4.1
2023-02-11T18:47:34.087Z,4
2023-02-11T18:50:04.274Z,4
2023-02-11T18:52:34.947Z,4
2023-02-11T18:55:04.525Z,4
2023-02-11T18:57:34.521Z,4
2023-02-11T19:00:06.017Z,4
2023-02-11T19:02:37.006Z,3.9
2023-02-11T19:05:07.429Z,3.9
2023-02-11T19:07:37.968Z,3.8
2023-02-11T19:10:07.905Z,3.8
2023-02-11T19:12:38.703Z,3.7
2023-02-11T19:15:08.633Z,3.6
2023-02-11T19:17:38.450Z,3.7
2023-02-11T19:20:09.241Z,3.6
2023-02-11T19:22:39.349Z,3.6
2023-02-11T19:25:09.278Z,3.6
2023-02-11T19:27:39.440Z,3.5
2023-02-11T19:30:09.310Z,3.6
2023-02-11T19:32:41.574Z,3.6
2023-02-11T19:35:11.964Z,3.5
2023-02-11T19:37:44.327Z,3.6
2023-02-11T19:40:15.656Z,3.6
2023-02-11T19:42:45.632Z,3.5
2023-02-11T19:45:15.617Z,3.6
2023-02-11T19:47:45.923Z,3.6
2023-02-11T19:50:15.876Z,3.6
2023-02-11T19:52:45.401Z,3.6
2023-02-11T19:55:18.803Z,3.7
2023-02-11T19:57:50.868Z,3.6
2023-02-11T20:00:21.146Z,3.6
2023-02-11T20:02:51.101Z,3.6
2023-02-11T20:05:20.945Z,3.6
2023-02-11T20:07:51.362Z,3.5
2023-02-11T20:10:21.315Z,3.5
2023-02-11T20:12:51.951Z,3.5
2023-02-11T20:15:21.864Z,3.5
2023-02-11T20:17:51.783Z,3.6
2023-02-11T20:20:21.821Z,3.5
2023-02-11T20:22:50.901Z,3.4
2023-02-11T20:25:20.988Z,3.4
2023-02-11T20:27:50.882Z,3.5
2023-02-11T20:30:21.692Z,3.5
2023-02-11T20:32:51.562Z,3.5
2023-02-11T20:35:22.275Z,3.5
2023-02-11T20:37:52.250Z,3.4
2023-02-11T20:40:22.409Z,3.4
2023-02-11T20:42:52.487Z,3.4
2023-02-11T20:45:23.193Z,3.4
2023-02-11T20:47:53.215Z,3.2
2023-02-11T20:50:25.124Z,3.3
2023-02-11T20:52:55.689Z,3.2
2023-02-11T20:55:26.234Z,3.2
2023-02-11T20:57:56.235Z,3.3
2023-02-11T21:00:25.728Z,3.3
2023-02-11T21:02:56.403Z,3.4
2023-02-11T21:05:26.146Z,3.4
2023-02-11T21:07:55.460Z,3.4
2023-02-11T21:10:25.890Z,3.4
2023-02-11T21:12:55.868Z,3.4
2023-02-11T21:15:26.652Z,3.4
2023-02-11T21:17:59.903Z,3.3
2023-02-11T21:20:29.743Z,3.4
2023-02-11T21:22:59.833Z,3.5
2023-02-11T21:25:30.120Z,3.5
2023-02-11T21:30:32.763Z,3.5
2023-02-11T21:33:02.721Z,3.6
2023-02-11T21:35:33.415Z,3.5
2023-02-11T21:38:03.658Z,3.5
2023-02-11T21:40:33.706Z,3.6
2023-02-11T21:43:03.544Z,3.6
2023-02-11T21:45:34.329Z,3.6
2023-02-11T21:48:04.342Z,3.6
2023-02-11T21:50:34.489Z,3.6
2023-02-11T21:53:06.893Z,3.7
2023-02-11T21:55:35.170Z,3.6
2023-02-11T21:58:04.893Z,3.6
2023-02-11T22:00:35.200Z,3.6
2023-02-11T22:03:08.307Z,3.6
2023-02-11T22:05:42.788Z,3.6
2023-02-11T22:08:12.750Z,3.6
2023-02-11T22:10:42.950Z,3.5
2023-02-11T22:13:12.897Z,3.4
2023-02-11T22:15:45.390Z,3.3
2023-02-11T22:18:15.481Z,3.4
2023-02-11T22:20:46.205Z,3.4
2023-02-11T22:23:16.261Z,3.5
2023-02-11T22:25:47.049Z,3.5
2023-02-11T22:28:17.503Z,3.6
2023-02-11T22:30:47.276Z,3.6
2023-02-11T22:33:17.449Z,3.6
2023-02-11T22:35:47.031Z,3.7
2023-02-11T22:38:17.098Z,3.5
2023-02-11T22:40:47.006Z,3.6
2023-02-11T22:43:17.132Z,3.5
2023-02-11T22:45:47.141Z,3.6
2023-02-11T22:48:23.222Z,3.5
2023-02-11T22:50:51.691Z,3.5
2023-02-11T22:53:21.397Z,3.5
2023-02-11T22:55:51.150Z,3.6
2023-02-11T22:58:20.971Z,3.6
2023-02-11T23:00:50.199Z,3.7
2023-02-11T23:03:19.980Z,3.7
2023-02-11T23:05:50.050Z,3.7
2023-02-11T23:08:20.098Z,3.8
2023-02-11T23:10:50.359Z,3.8
2023-02-11T23:13:20.859Z,3.8
2023-02-11T23:15:50.761Z,3.9
2023-02-11T23:18:20.826Z,3.9
2023-02-11T23:20:51.047Z,3.9
2023-02-11T23:23:26.265Z,4
2023-02-11T23:25:57.173Z,4
2023-02-11T23:28:26.766Z,4.1
2023-02-11T23:31:04.152Z,4.1
2023-02-11T23:33:36.407Z,4.1
2023-02-11T23:36:05.519Z,4.2
2023-02-11T23:38:35.769Z,4.3
2023-02-11T23:41:05.842Z,4.3
2023-02-11T23:43:35.975Z,4.3
2023-02-11T23:46:06.081Z,4.2
2023-02-11T23:48:36.130Z,4.2
2023-02-11T23:51:06.177Z,4.3
2023-02-11T23:53:36.206Z,4.2
2023-02-11T23:56:06.419Z,4.3
2023-02-11T23:58:36.489Z,4.3
